Time;durP1;ratioP1;P1;durP2;ratioP2;P2;SDS_P1;SDS_P2;PMS_P1;PMS_P2;Temp;Humidity;BMP_temperature;BMP_pressure;BME280_temperature;BME280_humidity;BME280_pressure;Samples;Min_cycle;Max_cycle;Signal;HPM_P1;HPM_P2
2022/07/27 00:00:35;;;;;;;;;0.00;0.00;;;;;;;;5038612;28;46631;-74
2022/07/27 00:03:01;;;;;;;;;1.00;1.00;;;;;;;;5038077;28;45423;-73
2022/07/27 00:05:26;;;;;;;;;0.67;0.00;;;;;;;;5038409;28;45283;-75
2022/07/27 00:07:51;;;;;;;;;1.33;1.00;;;;;;;;5038568;28;45525;-76
2022/07/27 00:10:16;;;;;;;;;0.00;0.00;;;;;;;;5036932;28;45541;-74
2022/07/27 00:12:42;;;;;;;;;1.00;1.00;;;;;;;;5038319;28;45304;-76
2022/07/27 00:15:08;;;;;;;;;3.67;0.33;;;;;;;;5038433;28;45215;-74
2022/07/27 00:17:33;;;;;;;;;1.00;1.00;;;;;;;;5038703;28;45510;-75
2022/07/27 00:19:59;;;;;;;;;0.67;0.33;;;;;;;;5037968;28;45981;-74
2022/07/27 00:22:24;;;;;;;;;1.67;0.00;;;;;;;;5037769;28;45432;-73
2022/07/27 00:24:49;;;;;;;;;2.33;2.00;;;;;;;;5038323;28;45319;-75
2022/07/27 00:27:15;;;;;;;;;0.00;0.00;;;;;;;;5038350;28;45266;-73
2022/07/27 00:29:40;;;;;;;;;3.00;1.00;;;;;;;;5038019;28;46458;-75
2022/07/27 00:32:06;;;;;;;;;2.00;0.00;;;;;;;;5037919;28;45313;-75
2022/07/27 00:34:31;;;;;;;;;1.00;1.00;;;;;;;;5038101;28;45380;-74
2022/07/27 00:36:56;;;;;;;;;1.00;1.00;;;;;;;;5038113;28;45374;-75
2022/07/27 00:39:21;;;;;;;;;1.00;1.00;;;;;;;;5037879;28;45982;-73
2022/07/27 00:41:47;;;;;;;;;2.33;1.00;;;;;;;;5037785;28;45429;-75
2022/07/27 00:44:12;;;;;;;;;2.33;0.67;;;;;;;;5037917;28;45435;-74
2022/07/27 00:46:37;;;;;;;;;4.67;1.00;;;;;;;;5037952;28;45278;-74
2022/07/27 00:49:02;;;;;;;;;0.00;0.00;;;;;;;;5037714;28;47591;-75
2022/07/27 00:51:28;;;;;;;;;5.33;1.00;;;;;;;;5037587;28;45436;-74
2022/07/27 00:53:54;;;;;;;;;3.00;1.00;;;;;;;;5037806;28;45333;-74
2022/07/27 00:56:19;;;;;;;;;3.33;1.00;;;;;;;;5037968;28;45196;-75
2022/07/27 00:58:46;;;;;;;;;3.33;0.67;;;;;;;;5037293;28;46231;-75
2022/07/27 01:01:11;;;;;;;;;1.33;1.33;;;;;;;;5037571;28;45359;-75
2022/07/27 01:03:37;;;;;;;;;1.00;1.00;;;;;;;;5037447;28;45187;-75
2022/07/27 01:06:02;;;;;;;;;2.67;1.00;;;;;;;;5037715;28;45448;-75
2022/07/27 01:08:27;;;;;;;;;2.33;1.33;;;;;;;;5037157;28;46213;-75
2022/07/27 01:10:53;;;;;;;;;2.00;1.00;;;;;;;;5036700;28;45468;-74
2022/07/27 01:13:19;;;;;;;;;3.00;2.00;;;;;;;;5037432;28;45365;-74
2022/07/27 01:15:44;;;;;;;;;0.00;0.00;;;;;;;;5037641;28;45313;-74
2022/07/27 01:18:25;;;;;;;;;1.33;1.33;;;;;;;;5037423;28;45311;-74
2022/07/27 01:20:51;;;;;;;;;0.67;0.67;;;;;;;;5036792;28;45300;-74
2022/07/27 01:23:16;;;;;;;;;1.00;1.00;;;;;;;;5037328;28;45443;-73
2022/07/27 01:25:41;;;;;;;;;2.67;1.00;;;;;;;;5037724;28;45344;-74
2022/07/27 01:28:07;;;;;;;;;1.00;1.00;;;;;;;;5037147;28;46367;-75
2022/07/27 01:30:34;;;;;;;;;1.00;1.00;;;;;;;;5037293;28;45244;-74
2022/07/27 01:33:03;;;;;;;;;2.00;1.00;;;;;;;;5037167;28;45365;-73
2022/07/27 01:35:28;;;;;;;;;0.33;0.33;;;;;;;;5037365;28;45221;-75
2022/07/27 01:37:54;;;;;;;;;1.00;1.00;;;;;;;;5036747;28;45552;-75
2022/07/27 01:40:19;;;;;;;;;0.00;0.00;;;;;;;;5037190;28;45314;-75
2022/07/27 01:42:44;;;;;;;;;2.33;1.00;;;;;;;;5037214;28;45204;-75
2022/07/27 01:45:09;;;;;;;;;1.00;1.00;;;;;;;;5037332;28;45428;-74
2022/07/27 01:47:35;;;;;;;;;2.67;2.00;;;;;;;;5036840;28;46775;-74
2022/07/27 01:50:00;;;;;;;;;1.67;1.67;;;;;;;;5037151;28;45302;-74
2022/07/27 01:52:25;;;;;;;;;1.00;1.00;;;;;;;;5036993;28;45290;-74
2022/07/27 01:54:50;;;;;;;;;0.00;0.00;;;;;;;;5037125;28;45468;-74
2022/07/27 01:57:16;;;;;;;;;1.33;1.33;;;;;;;;5036893;28;46388;-75
2022/07/27 01:59:41;;;;;;;;;2.67;1.00;;;;;;;;5036980;28;45223;-75
2022/07/27 02:02:06;;;;;;;;;1.00;1.00;;;;;;;;5036782;28;45200;-74
2022/07/27 02:04:31;;;;;;;;;0.33;0.33;;;;;;;;5037060;28;45428;-73
2022/07/27 02:06:56;;;;;;;;;2.00;2.00;;;;;;;;5036534;28;45433;-74
2022/07/27 02:09:24;;;;;;;;;1.00;1.00;;;;;;;;5036930;28;45343;-74
2022/07/27 02:14:34;;;;;;;;;1.00;1.00;;;;;;;;5036879;28;45382;-76
2022/07/27 02:16:59;;;;;;;;;1.33;0.00;;;;;;;;5036560;28;46221;-75
2022/07/27 02:19:24;;;;;;;;;0.67;0.00;;;;;;;;5036612;28;45286;-75
2022/07/27 02:21:49;;;;;;;;;1.00;1.00;;;;;;;;5036588;28;45334;-74
2022/07/27 02:24:15;;;;;;;;;2.33;1.00;;;;;;;;5036745;28;45294;-74
2022/07/27 02:26:40;;;;;;;;;1.00;1.00;;;;;;;;5036627;28;46148;-74
2022/07/27 02:29:05;;;;;;;;;2.33;1.00;;;;;;;;5036628;28;45321;-75
2022/07/27 02:31:31;;;;;;;;;0.67;0.67;;;;;;;;5036474;28;45413;-73
2022/07/27 02:33:56;;;;;;;;;0.67;0.67;;;;;;;;5038246;28;45330;-75
2022/07/27 02:36:21;;;;;;;;;2.00;0.00;;;;;;;;5039749;28;46068;-73
2022/07/27 02:38:47;;;;;;;;;0.00;0.00;;;;;;;;5039718;28;45641;-74
2022/07/27 02:41:12;;;;;;;;;0.00;0.00;;;;;;;;5039986;28;45412;-75
2022/07/27 02:43:37;;;;;;;;;1.00;1.00;;;;;;;;5040005;28;45342;-75
2022/07/27 02:46:02;;;;;;;;;1.67;0.00;;;;;;;;5039577;28;47305;-74
2022/07/27 02:48:27;;;;;;;;;0.00;0.00;;;;;;;;5039630;28;45366;-73
2022/07/27 02:50:53;;;;;;;;;2.00;0.33;;;;;;;;5021778;28;45452;-75
2022/07/27 02:53:18;;;;;;;;;1.00;1.00;;;;;;;;5039709;28;45445;-74
2022/07/27 02:55:43;;;;;;;;;0.67;0.67;;;;;;;;5039383;28;47210;-74
2022/07/27 02:58:08;;;;;;;;;1.00;1.00;;;;;;;;5039601;28;45373;-74
2022/07/27 03:00:34;;;;;;;;;2.00;0.67;;;;;;;;5039556;28;45219;-74
2022/07/27 03:02:59;;;;;;;;;2.00;0.33;;;;;;;;5039338;28;45441;-74
2022/07/27 03:05:24;;;;;;;;;2.00;0.00;;;;;;;;5038246;28;46366;-73
2022/07/27 03:07:50;;;;;;;;;2.00;0.00;;;;;;;;5039162;28;45418;-75
2022/07/27 03:10:15;;;;;;;;;0.67;0.00;;;;;;;;5039386;28;45400;-74
2022/07/27 03:12:42;;;;;;;;;2.33;0.00;;;;;;;;5039606;28;45444;-74
2022/07/27 03:15:07;;;;;;;;;1.00;1.00;;;;;;;;5039040;28;46555;-74
2022/07/27 03:17:32;;;;;;;;;2.00;0.67;;;;;;;;5039183;28;45193;-74
2022/07/27 03:19:58;;;;;;;;;0.67;0.00;;;;;;;;5039144;28;45219;-74
2022/07/27 03:22:23;;;;;;;;;0.00;0.00;;;;;;;;5039278;28;45361;-74
2022/07/27 03:24:48;;;;;;;;;0.67;0.00;;;;;;;;5039063;28;45460;-73
2022/07/27 03:27:13;;;;;;;;;2.67;0.00;;;;;;;;5039181;28;45366;-74
2022/07/27 03:29:39;;;;;;;;;0.00;0.00;;;;;;;;5039297;28;45310;-75
2022/07/27 03:32:04;;;;;;;;;0.00;0.00;;;;;;;;5039295;28;45321;-74
2022/07/27 03:34:29;;;;;;;;;1.00;1.00;;;;;;;;5038979;28;46538;-75
2022/07/27 03:36:55;;;;;;;;;1.00;1.00;;;;;;;;5038917;28;45317;-73
2022/07/27 03:39:20;;;;;;;;;2.00;2.00;;;;;;;;5039030;28;45380;-74
2022/07/27 03:41:45;;;;;;;;;0.00;0.00;;;;;;;;5038944;28;45302;-74
2022/07/27 03:44:10;;;;;;;;;1.00;0.00;;;;;;;;5038314;28;45497;-73
2022/07/27 03:46:36;;;;;;;;;0.00;0.00;;;;;;;;5020960;28;45501;-73
2022/07/27 03:49:01;;;;;;;;;1.00;1.00;;;;;;;;5038971;28;45289;-74
2022/07/27 03:51:26;;;;;;;;;2.00;0.67;;;;;;;;5038928;28;45580;-74
2022/07/27 03:53:51;;;;;;;;;1.00;0.00;;;;;;;;5038404;28;46276;-74
2022/07/27 03:56:16;;;;;;;;;1.00;1.00;;;;;;;;5037456;28;45262;-74
2022/07/27 03:58:42;;;;;;;;;2.00;1.00;;;;;;;;5038938;28;45267;-73
2022/07/27 04:01:07;;;;;;;;;1.00;1.00;;;;;;;;5038627;28;45409;-74
2022/07/27 04:03:32;;;;;;;;;1.00;1.00;;;;;;;;5038164;28;46470;-74
2022/07/27 04:05:57;;;;;;;;;0.67;0.67;;;;;;;;5038439;28;45344;-74
2022/07/27 04:08:23;;;;;;;;;3.00;1.00;;;;;;;;5038442;28;45377;-74
2022/07/27 04:10:48;;;;;;;;;2.00;1.00;;;;;;;;5038873;28;45283;-73
2022/07/27 04:13:13;;;;;;;;;3.67;2.00;;;;;;;;5038041;28;46235;-74
2022/07/27 04:15:38;;;;;;;;;3.33;1.00;;;;;;;;5038128;28;45459;-74
2022/07/27 04:18:04;;;;;;;;;1.00;1.00;;;;;;;;5038404;28;45379;-74
2022/07/27 04:20:29;;;;;;;;;0.00;0.00;;;;;;;;5038238;28;45405;-73
2022/07/27 04:22:54;;;;;;;;;2.33;2.33;;;;;;;;5038097;28;45759;-74
2022/07/27 04:25:20;;;;;;;;;2.33;1.00;;;;;;;;5038231;28;45178;-73
2022/07/27 04:27:45;;;;;;;;;1.00;1.00;;;;;;;;5038142;28;45215;-74
2022/07/27 04:30:10;;;;;;;;;0.00;0.00;;;;;;;;5038219;28;45195;-74
2022/07/27 04:32:36;;;;;;;;;1.00;1.00;;;;;;;;5037688;28;47122;-74
2022/07/27 04:35:02;;;;;;;;;1.00;1.00;;;;;;;;5038155;28;45350;-73
2022/07/27 04:37:27;;;;;;;;;2.00;2.00;;;;;;;;5037933;28;45417;-73
2022/07/27 04:39:55;;;;;;;;;3.33;3.33;;;;;;;;5038109;28;45358;-74
2022/07/27 04:42:20;;;;;;;;;0.00;0.00;;;;;;;;5037648;28;47217;-74
2022/07/27 04:44:46;;;;;;;;;1.33;1.00;;;;;;;;5037714;28;45206;-74
2022/07/27 04:47:11;;;;;;;;;1.00;1.00;;;;;;;;5037770;28;45390;-73
2022/07/27 04:49:36;;;;;;;;;5.67;5.00;;;;;;;;5038014;28;45466;-73
2022/07/27 04:52:02;;;;;;;;;0.33;0.33;;;;;;;;5037712;28;45519;-74
2022/07/27 04:54:27;;;;;;;;;2.00;1.00;;;;;;;;5037665;28;45254;-74
2022/07/27 04:56:52;;;;;;;;;2.33;2.00;;;;;;;;5036999;28;45390;-74
2022/07/27 04:59:17;;;;;;;;;3.33;2.00;;;;;;;;5029903;28;45289;-74
2022/07/27 05:01:42;;;;;;;;;6.00;2.00;;;;;;;;5037513;28;45433;-75
2022/07/27 05:04:08;;;;;;;;;2.00;2.00;;;;;;;;5037392;28;45457;-73
2022/07/27 05:06:33;;;;;;;;;2.67;2.67;;;;;;;;5037759;28;45298;-74
2022/07/27 05:08:58;;;;;;;;;3.00;3.00;;;;;;;;5037404;28;45529;-74
2022/07/27 05:11:24;;;;;;;;;4.67;3.00;;;;;;;;5037506;28;45384;-73
2022/07/27 05:13:49;;;;;;;;;4.00;3.00;;;;;;;;5037354;28;45371;-74
2022/07/27 05:16:14;;;;;;;;;1.33;1.00;;;;;;;;5037619;28;45239;-75
2022/07/27 05:18:39;;;;;;;;;7.00;5.67;;;;;;;;5037706;28;45191;-74
2022/07/27 05:21:05;;;;;;;;;4.67;4.67;;;;;;;;5037327;28;45357;-75
2022/07/27 05:23:31;;;;;;;;;5.33;3.67;;;;;;;;5037109;28;45464;-75
2022/07/27 05:25:56;;;;;;;;;6.00;3.00;;;;;;;;5037357;28;45451;-75
2022/07/27 05:28:21;;;;;;;;;9.67;8.33;;;;;;;;5037410;28;45486;-74
2022/07/27 05:30:47;;;;;;;;;8.33;5.67;;;;;;;;5037211;28;46400;-76
2022/07/27 05:33:12;;;;;;;;;6.00;4.00;;;;;;;;5037106;28;45298;-75
2022/07/27 05:35:37;;;;;;;;;8.67;4.33;;;;;;;;5037395;28;45256;-75
2022/07/27 05:38:02;;;;;;;;;6.00;4.00;;;;;;;;5037358;28;45338;-75
2022/07/27 05:40:28;;;;;;;;;4.67;3.33;;;;;;;;5036996;28;45521;-75
2022/07/27 05:42:53;;;;;;;;;5.00;4.00;;;;;;;;5036857;28;45382;-74
2022/07/27 05:45:18;;;;;;;;;3.00;3.00;;;;;;;;5037084;28;45311;-75
2022/07/27 05:47:44;;;;;;;;;3.00;3.00;;;;;;;;5037279;28;45124;-75
2022/07/27 05:50:09;;;;;;;;;4.00;3.00;;;;;;;;5037097;28;46287;-75
2022/07/27 05:52:35;;;;;;;;;3.33;2.00;;;;;;;;5036923;28;45522;-75
2022/07/27 05:55:00;;;;;;;;;7.00;2.00;;;;;;;;5037045;28;45409;-74
2022/07/27 05:57:25;;;;;;;;;2.00;2.00;;;;;;;;5037230;28;45412;-74
2022/07/27 05:59:53;;;;;;;;;2.00;2.00;;;;;;;;5036771;28;45440;-75
2022/07/27 06:02:18;;;;;;;;;1.00;1.00;;;;;;;;5036187;28;45421;-75
2022/07/27 06:04:43;;;;;;;;;2.67;1.33;;;;;;;;5037005;28;45400;-75
2022/07/27 06:09:53;;;;;;;;;3.00;1.33;;;;;;;;5040203;28;45435;-75
2022/07/27 06:12:18;;;;;;;;;2.00;2.00;;;;;;;;5040283;28;45370;-75
2022/07/27 06:14:43;;;;;;;;;1.00;1.00;;;;;;;;5040444;28;45343;-74
2022/07/27 06:17:09;;;;;;;;;2.00;2.00;;;;;;;;5040525;28;45460;-75
2022/07/27 06:19:38;;;;;;;;;1.00;1.00;;;;;;;;5039831;28;46551;-75
2022/07/27 06:22:03;;;;;;;;;2.00;2.00;;;;;;;;5039959;28;45346;-75
2022/07/27 06:24:29;;;;;;;;;1.00;1.00;;;;;;;;5040011;28;45338;-76
2022/07/27 06:26:54;;;;;;;;;2.33;1.00;;;;;;;;5040319;28;45418;-75
2022/07/27 06:29:19;;;;;;;;;3.00;2.00;;;;;;;;5039979;28;45352;-75
2022/07/27 06:31:45;;;;;;;;;2.00;2.00;;;;;;;;5039819;28;45416;-74
2022/07/27 06:34:10;;;;;;;;;1.00;1.00;;;;;;;;5040046;28;45244;-74
2022/07/27 06:36:38;;;;;;;;;1.00;1.00;;;;;;;;5040202;28;45294;-76
2022/07/27 06:39:03;;;;;;;;;1.00;1.00;;;;;;;;5039459;28;46261;-75
2022/07/27 06:41:29;;;;;;;;;2.00;1.00;;;;;;;;5039757;28;45327;-75
2022/07/27 06:43:54;;;;;;;;;2.00;1.00;;;;;;;;5040020;28;45286;-77
2022/07/27 06:46:19;;;;;;;;;1.00;0.00;;;;;;;;5039977;28;45373;-77
2022/07/27 06:48:44;;;;;;;;;1.00;1.00;;;;;;;;5039571;28;46470;-76
2022/07/27 06:51:10;;;;;;;;;1.67;1.33;;;;;;;;5039635;28;45213;-76
2022/07/27 06:53:35;;;;;;;;;3.00;1.67;;;;;;;;5039569;28;45414;-75
2022/07/27 06:56:03;;;;;;;;;2.00;1.00;;;;;;;;5039731;28;45254;-76
2022/07/27 06:58:32;;;;;;;;;1.00;1.00;;;;;;;;5039408;28;47442;-76
2022/07/27 07:01:00;;;;;;;;;1.00;1.00;;;;;;;;5039582;28;45490;-76
2022/07/27 07:03:26;;;;;;;;;2.00;1.00;;;;;;;;5039232;28;45463;-76
2022/07/27 07:05:51;;;;;;;;;1.00;1.00;;;;;;;;5039629;28;45457;-76
2022/07/27 07:08:16;;;;;;;;;0.33;0.33;;;;;;;;5039176;28;46114;-75
2022/07/27 07:10:42;;;;;;;;;0.33;0.33;;;;;;;;5021424;28;46225;-77
2022/07/27 07:13:07;;;;;;;;;27.33;23.00;;;;;;;;5039412;28;45271;-76
2022/07/27 07:15:33;;;;;;;;;1.00;1.00;;;;;;;;5039555;28;45520;-77
2022/07/27 07:18:02;;;;;;;;;2.67;2.67;;;;;;;;5039162;28;47182;-77
2022/07/27 07:20:27;;;;;;;;;0.00;0.00;;;;;;;;5035108;28;45323;-77
2022/07/27 07:22:53;;;;;;;;;4.00;1.00;;;;;;;;5039142;28;45493;-76
2022/07/27 07:25:18;;;;;;;;;1.00;1.00;;;;;;;;5039334;28;45395;-77
2022/07/27 07:27:44;;;;;;;;;2.00;0.67;;;;;;;;5039372;28;46614;-76
2022/07/27 07:30:09;;;;;;;;;1.00;1.00;;;;;;;;5039109;28;45307;-77
2022/07/27 07:32:34;;;;;;;;;2.00;1.00;;;;;;;;5038927;28;45254;-77
2022/07/27 07:35:02;;;;;;;;;2.00;1.00;;;;;;;;5039372;28;45417;-76
2022/07/27 07:37:27;;;;;;;;;1.00;1.00;;;;;;;;5038960;28;45680;-77
2022/07/27 07:39:52;;;;;;;;;1.67;1.00;;;;;;;;5038783;28;45678;-77
2022/07/27 07:42:18;;;;;;;;;2.00;1.00;;;;;;;;5038824;28;45232;-76
2022/07/27 07:44:43;;;;;;;;;1.33;1.33;;;;;;;;5039237;28;45406;-77
2022/07/27 07:47:08;;;;;;;;;1.00;1.00;;;;;;;;5038642;28;45713;-77
2022/07/27 07:49:34;;;;;;;;;0.00;0.00;;;;;;;;5038755;28;45207;-76
2022/07/27 07:51:59;;;;;;;;;1.00;1.00;;;;;;;;5038847;28;45453;-77
2022/07/27 07:54:24;;;;;;;;;0.00;0.00;;;;;;;;5038797;28;45282;-77
2022/07/27 07:56:50;;;;;;;;;3.00;1.00;;;;;;;;5038576;28;45337;-77
2022/07/27 07:59:15;;;;;;;;;1.00;1.00;;;;;;;;5038597;28;45293;-77
2022/07/27 08:01:40;;;;;;;;;1.00;1.00;;;;;;;;5038758;28;45499;-77
2022/07/27 08:04:05;;;;;;;;;1.00;1.00;;;;;;;;5038454;28;45639;-74
2022/07/27 08:06:31;;;;;;;;;0.33;0.33;;;;;;;;5038243;28;46364;-75
2022/07/27 08:08:57;;;;;;;;;2.00;1.00;;;;;;;;5038062;28;45311;-75
2022/07/27 08:11:22;;;;;;;;;1.33;0.00;;;;;;;;5038561;28;45306;-76
2022/07/27 08:13:47;;;;;;;;;3.00;2.00;;;;;;;;5038504;28;45325;-76
2022/07/27 08:16:13;;;;;;;;;1.00;1.00;;;;;;;;5038247;28;46425;-74
2022/07/27 08:18:38;;;;;;;;;1.00;1.00;;;;;;;;5038347;28;45263;-76
2022/07/27 08:21:03;;;;;;;;;0.33;0.33;;;;;;;;5038297;28;45445;-75
2022/07/27 08:23:30;;;;;;;;;1.00;1.00;;;;;;;;5038256;28;45398;-75
2022/07/27 08:25:55;;;;;;;;;1.00;1.00;;;;;;;;5038181;28;46249;-75
2022/07/27 08:28:21;;;;;;;;;2.00;2.00;;;;;;;;5038077;28;45298;-75
2022/07/27 08:30:46;;;;;;;;;2.00;0.00;;;;;;;;5037201;28;45399;-75
2022/07/27 08:33:11;;;;;;;;;1.67;1.67;;;;;;;;5038262;28;45370;-76
2022/07/27 08:35:37;;;;;;;;;0.00;0.00;;;;;;;;5037927;28;45439;-76
2022/07/27 08:38:04;;;;;;;;;3.33;1.00;;;;;;;;5037973;28;45366;-75
2022/07/27 08:40:29;;;;;;;;;1.33;0.33;;;;;;;;5038088;28;45310;-75
2022/07/27 08:42:54;;;;;;;;;0.67;0.67;;;;;;;;5037892;28;45461;-76
2022/07/27 08:45:20;;;;;;;;;0.00;0.00;;;;;;;;5037847;28;45499;-76
2022/07/27 08:47:45;;;;;;;;;2.00;0.33;;;;;;;;5037855;28;45435;-75
2022/07/27 08:50:28;;;;;;;;;0.33;0.33;;;;;;;;5038028;28;45362;-75
2022/07/27 08:53:02;;;;;;;;;1.00;1.00;;;;;;;;5038087;28;45229;-76
2022/07/27 08:55:28;;;;;;;;;0.33;0.33;;;;;;;;5037326;28;46536;-75
2022/07/27 08:57:53;;;;;;;;;0.00;0.00;;;;;;;;5037660;28;45286;-76
2022/07/27 09:00:18;;;;;;;;;3.00;3.00;;;;;;;;5037521;28;45300;-75
2022/07/27 09:02:44;;;;;;;;;1.00;1.00;;;;;;;;5037583;28;45200;-76
2022/07/27 09:05:09;;;;;;;;;3.00;2.00;;;;;;;;5037427;28;46745;-75
2022/07/27 09:07:35;;;;;;;;;1.33;1.33;;;;;;;;5037578;28;45346;-74
2022/07/27 09:10:01;;;;;;;;;1.67;1.00;;;;;;;;5037621;28;45360;-74
2022/07/27 09:12:27;;;;;;;;;4.00;2.00;;;;;;;;5037782;28;45444;-75
2022/07/27 09:15:02;;;;;;;;;2.33;2.33;;;;;;;;5037479;28;46364;-76
2022/07/27 09:17:27;;;;;;;;;2.00;0.67;;;;;;;;5037226;28;45409;-75
2022/07/27 09:19:57;;;;;;;;;2.00;0.00;;;;;;;;5037457;28;45229;-76
2022/07/27 09:22:40;;;;;;;;;0.33;0.33;;;;;;;;5037661;28;45509;-75
2022/07/27 09:25:07;;;;;;;;;2.00;1.00;;;;;;;;5037033;28;46534;-75
2022/07/27 09:27:32;;;;;;;;;1.00;1.00;;;;;;;;5037380;28;45335;-75
2022/07/27 09:30:02;;;;;;;;;18.67;12.67;;;;;;;;5037253;28;45381;-75
2022/07/27 09:32:27;;;;;;;;;5.33;4.00;;;;;;;;5037339;28;45527;-74
2022/07/27 09:34:52;;;;;;;;;0.00;0.00;;;;;;;;5037231;28;46075;-75
2022/07/27 09:37:24;;;;;;;;;0.67;0.33;;;;;;;;5037287;28;45259;-73
2022/07/27 09:39:51;;;;;;;;;1.00;0.00;;;;;;;;5037262;28;45474;-75
2022/07/27 09:42:19;;;;;;;;;1.00;1.00;;;;;;;;5037858;28;45445;-75
2022/07/27 09:44:44;;;;;;;;;0.00;0.00;;;;;;;;5040518;28;46162;-74
2022/07/27 09:47:25;;;;;;;;;0.00;0.00;;;;;;;;5040741;28;45338;-74
2022/07/27 09:49:50;;;;;;;;;2.67;1.00;;;;;;;;5040904;28;45471;-75
2022/07/27 09:52:42;;;;;;;;;1.00;1.00;;;;;;;;5040830;28;45394;-74
2022/07/27 09:55:07;;;;;;;;;0.00;0.00;;;;;;;;5037331;28;47482;-76
2022/07/27 09:57:51;;;;;;;;;0.00;0.00;;;;;;;;5040197;28;45147;-75
2022/07/27 10:00:16;;;;;;;;;2.00;0.67;;;;;;;;5040664;28;45285;-75
2022/07/27 10:02:42;;;;;;;;;0.67;0.67;;;;;;;;5040315;28;45225;-75
2022/07/27 10:05:07;;;;;;;;;0.00;0.00;;;;;;;;5040213;28;46175;-74
2022/07/27 10:07:33;;;;;;;;;0.00;0.00;;;;;;;;5040413;28;45424;-74
2022/07/27 10:10:00;;;;;;;;;2.00;0.00;;;;;;;;5040364;28;45436;-76
2022/07/27 10:12:27;;;;;;;;;1.00;1.00;;;;;;;;5040573;28;45465;-75
2022/07/27 10:14:52;;;;;;;;;2.00;1.00;;;;;;;;5040141;28;46654;-76
2022/07/27 10:17:18;;;;;;;;;0.00;0.00;;;;;;;;5040322;28;45276;-75
2022/07/27 10:19:49;;;;;;;;;3.67;0.67;;;;;;;;5040475;28;45299;-75
2022/07/27 10:22:14;;;;;;;;;1.00;1.00;;;;;;;;5040379;28;45495;-74
2022/07/27 10:24:39;;;;;;;;;1.67;1.33;;;;;;;;5039752;28;47381;-75
2022/07/27 10:27:17;;;;;;;;;0.33;0.33;;;;;;;;5040292;28;45272;-75
2022/07/27 10:29:42;;;;;;;;;0.67;0.67;;;;;;;;5040115;28;45432;-75
2022/07/27 10:32:07;;;;;;;;;2.00;1.00;;;;;;;;5040228;28;45322;-75
2022/07/27 10:34:37;;;;;;;;;0.00;0.00;;;;;;;;5040017;28;45436;-74
2022/07/27 10:37:11;;;;;;;;;1.67;1.00;;;;;;;;5039846;28;45508;-74
2022/07/27 10:39:38;;;;;;;;;0.67;0.67;;;;;;;;5039759;28;45452;-74
2022/07/27 10:42:29;;;;;;;;;1.67;0.00;;;;;;;;5040053;28;45215;-74
2022/07/27 10:44:59;;;;;;;;;0.67;0.67;;;;;;;;5036451;28;46043;-74
2022/07/27 10:47:32;;;;;;;;;1.67;1.67;;;;;;;;5039841;28;45543;-74
2022/07/27 10:50:15;;;;;;;;;1.67;1.67;;;;;;;;5039765;28;45412;-73
2022/07/27 10:52:41;;;;;;;;;0.00;0.00;;;;;;;;5039878;28;45345;-74
2022/07/27 10:55:07;;;;;;;;;0.67;0.67;;;;;;;;5038348;28;47109;-73
2022/07/27 10:57:34;;;;;;;;;0.00;0.00;;;;;;;;5039633;28;45455;-74
2022/07/27 11:00:05;;;;;;;;;0.00;0.00;;;;;;;;5039562;28;45475;-74
2022/07/27 11:02:36;;;;;;;;;0.67;0.67;;;;;;;;5039438;28;45490;-74
2022/07/27 11:05:03;;;;;;;;;0.00;0.00;;;;;;;;5039211;28;46409;-74
2022/07/27 11:07:28;;;;;;;;;0.33;0.33;;;;;;;;5039330;28;45306;-73
2022/07/27 11:09:53;;;;;;;;;0.33;0.33;;;;;;;;5039231;28;45354;-73
2022/07/27 11:12:18;;;;;;;;;0.00;0.00;;;;;;;;5039667;28;45452;-74
2022/07/27 11:14:45;;;;;;;;;0.00;0.00;;;;;;;;5039189;28;46582;-74
2022/07/27 11:17:10;;;;;;;;;0.00;0.00;;;;;;;;5037980;28;45434;-74
2022/07/27 11:19:35;;;;;;;;;0.33;0.33;;;;;;;;5039435;28;45346;-74
2022/07/27 11:22:01;;;;;;;;;0.00;0.00;;;;;;;;5039403;28;45211;-75
2022/07/27 11:24:27;;;;;;;;;1.67;1.67;;;;;;;;5039006;28;45661;-75
2022/07/27 11:26:52;;;;;;;;;0.00;0.00;;;;;;;;5039078;28;45450;-74
2022/07/27 11:29:18;;;;;;;;;0.00;0.00;;;;;;;;5039150;28;45426;-74
2022/07/27 11:31:45;;;;;;;;;0.00;0.00;;;;;;;;5039203;28;45220;-74
2022/07/27 11:34:12;;;;;;;;;0.00;0.00;;;;;;;;5038768;28;46403;-74
2022/07/27 11:36:45;;;;;;;;;0.67;0.67;;;;;;;;5038799;28;45353;-76
2022/07/27 11:39:11;;;;;;;;;1.00;1.00;;;;;;;;5039148;28;45390;-74
2022/07/27 11:41:37;;;;;;;;;1.00;1.00;;;;;;;;5038947;28;45568;-74
2022/07/27 11:44:04;;;;;;;;;1.33;1.33;;;;;;;;5038576;28;45808;-73
2022/07/27 11:46:30;;;;;;;;;2.33;1.00;;;;;;;;5038998;28;45366;-75
2022/07/27 11:48:56;;;;;;;;;1.33;1.33;;;;;;;;5038753;28;45252;-75
2022/07/27 11:51:22;;;;;;;;;1.67;0.33;;;;;;;;5038998;28;45235;-73
2022/07/27 11:53:47;;;;;;;;;1.00;1.00;;;;;;;;5038693;28;46637;-74
2022/07/27 11:56:20;;;;;;;;;1.00;1.00;;;;;;;;5038224;28;45298;-74
2022/07/27 11:58:58;;;;;;;;;1.67;1.67;;;;;;;;5038881;28;45374;-74
2022/07/27 12:01:28;;;;;;;;;3.00;1.33;;;;;;;;5038668;28;45452;-74
2022/07/27 12:04:07;;;;;;;;;2.00;2.00;;;;;;;;5038031;28;45404;-73
2022/07/27 12:06:33;;;;;;;;;0.67;0.67;;;;;;;;5038029;28;45334;-75
2022/07/27 12:09:03;;;;;;;;;0.00;0.00;;;;;;;;5038482;28;45479;-75
2022/07/27 12:11:53;;;;;;;;;1.00;1.00;;;;;;;;5038418;28;45309;-73
2022/07/27 12:14:27;;;;;;;;;1.00;1.00;;;;;;;;4976221;28;46540;-73
2022/07/27 12:17:12;;;;;;;;;0.67;0.00;;;;;;;;4976517;28;45297;-73
2022/07/27 12:19:38;;;;;;;;;1.33;0.00;;;;;;;;4976398;28;45229;-73
2022/07/27 12:22:03;;;;;;;;;2.00;0.00;;;;;;;;4976782;28;45245;-73
2022/07/27 12:24:37;;;;;;;;;2.00;0.00;;;;;;;;4976473;28;47122;-74
2022/07/27 12:27:12;;;;;;;;;3.00;3.00;;;;;;;;4976368;28;45471;-74
2022/07/27 12:30:14;;;;;;;;;2.00;2.00;;;;;;;;4976613;28;45408;-75
2022/07/27 12:32:43;;;;;;;;;1.00;1.00;;;;;;;;4956969;28;45430;-74
2022/07/27 12:35:25;;;;;;;;;3.00;1.00;;;;;;;;4956750;28;45439;-74
2022/07/27 12:38:01;;;;;;;;;1.33;1.33;;;;;;;;4956865;28;45339;-74
2022/07/27 12:40:26;;;;;;;;;1.00;1.00;;;;;;;;4969426;28;45380;-75
2022/07/27 12:43:02;;;;;;;;;1.00;1.00;;;;;;;;4976520;28;45435;-75
2022/07/27 12:45:29;;;;;;;;;1.00;1.00;;;;;;;;4976253;28;46617;-75
2022/07/27 12:48:02;;;;;;;;;2.00;2.00;;;;;;;;4976288;28;45286;-75
2022/07/27 12:50:28;;;;;;;;;2.00;0.00;;;;;;;;4981256;28;45513;-75
2022/07/27 12:52:53;;;;;;;;;0.00;0.00;;;;;;;;5015879;28;45490;-76
2022/07/27 12:55:19;;;;;;;;;1.33;0.33;;;;;;;;5015396;28;45627;-75
2022/07/27 12:57:46;;;;;;;;;3.00;1.67;;;;;;;;5015658;28;45295;-75
2022/07/27 13:00:13;;;;;;;;;0.00;0.00;;;;;;;;5015800;28;45422;-76
2022/07/27 13:02:39;;;;;;;;;1.67;0.33;;;;;;;;5015457;28;45354;-75
2022/07/27 13:05:07;;;;;;;;;2.00;0.00;;;;;;;;5015341;28;46432;-75
2022/07/27 13:07:32;;;;;;;;;3.00;1.33;;;;;;;;5034586;28;45357;-74
2022/07/27 13:09:57;;;;;;;;;2.00;1.00;;;;;;;;5037411;28;45445;-75
2022/07/27 13:12:23;;;;;;;;;0.00;0.00;;;;;;;;5037628;28;45429;-76
2022/07/27 13:14:49;;;;;;;;;0.00;0.00;;;;;;;;5037285;28;46669;-75
2022/07/27 13:17:14;;;;;;;;;0.67;0.33;;;;;;;;5036746;28;45396;-75
2022/07/27 13:19:39;;;;;;;;;4.00;1.00;;;;;;;;5037572;28;45253;-75
2022/07/27 13:22:04;;;;;;;;;0.67;0.00;;;;;;;;5037544;28;45376;-74
2022/07/27 13:24:30;;;;;;;;;1.00;1.00;;;;;;;;5037370;28;45473;-76
2022/07/27 13:26:55;;;;;;;;;0.00;0.00;;;;;;;;5037266;28;45427;-75
2022/07/27 13:29:20;;;;;;;;;1.00;1.00;;;;;;;;5037503;28;45381;-76
2022/07/27 13:31:46;;;;;;;;;1.00;1.00;;;;;;;;5037555;28;45405;-76
2022/07/27 13:34:11;;;;;;;;;2.67;1.00;;;;;;;;5035873;28;45565;-76
2022/07/27 13:36:39;;;;;;;;;3.00;1.00;;;;;;;;5037397;28;45392;-75
2022/07/27 13:39:05;;;;;;;;;2.33;1.33;;;;;;;;5037312;28;45343;-76
2022/07/27 13:41:30;;;;;;;;;1.00;1.00;;;;;;;;5037215;28;45457;-74
2022/07/27 13:43:55;;;;;;;;;3.33;1.67;;;;;;;;5036853;28;46697;-75
2022/07/27 13:46:20;;;;;;;;;1.00;1.00;;;;;;;;5037131;28;45401;-75
2022/07/27 13:48:45;;;;;;;;;2.67;1.00;;;;;;;;5037277;28;45366;-75
2022/07/27 13:51:11;;;;;;;;;4.33;4.33;;;;;;;;5037341;28;45377;-75
2022/07/27 13:53:36;;;;;;;;;1.00;1.00;;;;;;;;5037004;28;46203;-75
2022/07/27 13:56:01;;;;;;;;;1.67;1.67;;;;;;;;5036866;28;45357;-75
2022/07/27 13:58:27;;;;;;;;;4.67;3.00;;;;;;;;5037096;28;45465;-76
2022/07/27 14:00:53;;;;;;;;;3.33;2.00;;;;;;;;5037156;28;45599;-76
2022/07/27 14:03:18;;;;;;;;;2.00;2.00;;;;;;;;5036496;28;47304;-75
2022/07/27 14:05:43;;;;;;;;;1.00;1.00;;;;;;;;5036868;28;45232;-75
2022/07/27 14:08:08;;;;;;;;;4.67;1.33;;;;;;;;5036813;28;45220;-75
2022/07/27 14:10:43;;;;;;;;;2.00;2.00;;;;;;;;5037077;28;45210;-75
2022/07/27 14:13:10;;;;;;;;;1.33;0.33;;;;;;;;5036792;28;46273;-75
2022/07/27 14:15:39;;;;;;;;;2.00;0.67;;;;;;;;5036622;28;45491;-74
2022/07/27 14:18:05;;;;;;;;;2.00;2.00;;;;;;;;5036825;28;45409;-75
2022/07/27 14:20:30;;;;;;;;;2.00;2.00;;;;;;;;5036680;28;45385;-75
2022/07/27 14:22:56;;;;;;;;;2.00;2.00;;;;;;;;5036375;28;47282;-76
2022/07/27 14:25:21;;;;;;;;;1.67;1.67;;;;;;;;5036417;28;45624;-75
2022/07/27 14:27:46;;;;;;;;;3.67;3.00;;;;;;;;5036690;28;45301;-75
2022/07/27 14:30:12;;;;;;;;;1.00;1.00;;;;;;;;5040125;28;45369;-75
2022/07/27 14:32:37;;;;;;;;;1.67;1.00;;;;;;;;5039729;28;46735;-74
2022/07/27 14:35:03;;;;;;;;;0.00;0.00;;;;;;;;5039769;28;45586;-76
2022/07/27 14:37:29;;;;;;;;;1.00;1.00;;;;;;;;5040070;28;45433;-74
2022/07/27 14:39:54;;;;;;;;;0.33;0.33;;;;;;;;5039866;28;45251;-74
2022/07/27 14:42:21;;;;;;;;;4.00;2.00;;;;;;;;5039700;28;45490;-74
2022/07/27 14:44:46;;;;;;;;;1.00;1.00;;;;;;;;5039738;28;45452;-74